sensor_id;sensor_type;location;lat;lon;timestamp;temperature;humidity
7117;DHT22;3600;48.568;7.870;2023-03-03T00:00:04;0.80;99.90
7117;DHT22;3600;48.568;7.870;2023-03-03T00:02:31;0.80;99.90
7117;DHT22;3600;48.568;7.870;2023-03-03T00:04:58;0.80;99.90
7117;DHT22;3600;48.568;7.870;2023-03-03T00:07:25;0.70;99.90
7117;DHT22;3600;48.568;7.870;2023-03-03T00:09:51;0.70;99.90
7117;DHT22;3600;48.568;7.870;2023-03-03T00:12:26;0.80;99.90
7117;DHT22;3600;48.568;7.870;2023-03-03T00:14:53;0.70;99.90
7117;DHT22;3600;48.568;7.870;2023-03-03T00:17:26;0.60;99.90
7117;DHT22;3600;48.568;7.870;2023-03-03T00:19:53;0.40;99.90
7117;DHT22;3600;48.568;7.870;2023-03-03T00:22:34;0.20;99.90
7117;DHT22;3600;48.568;7.870;2023-03-03T00:25:30;0.40;99.90
7117;DHT22;3600;48.568;7.870;2023-03-03T00:30:43;0.50;99.90
7117;DHT22;3600;48.568;7.870;2023-03-03T00:33:29;0.50;99.90
7117;DHT22;3600;48.568;7.870;2023-03-03T00:38:41;0.70;99.90
7117;DHT22;3600;48.568;7.870;2023-03-03T00:41:38;0.50;99.90
7117;DHT22;3600;48.568;7.870;2023-03-03T00:46:51;0.30;99.90
7117;DHT22;3600;48.568;7.870;2023-03-03T00:49:25;0.30;99.90
7117;DHT22;3600;48.568;7.870;2023-03-03T00:51:53;0.30;99.90
7117;DHT22;3600;48.568;7.870;2023-03-03T00:54:20;0.60;99.90
7117;DHT22;3600;48.568;7.870;2023-03-03T00:56:46;0.70;99.90
7117;DHT22;3600;48.568;7.870;2023-03-03T00:59:13;0.60;99.90
7117;DHT22;3600;48.568;7.870;2023-03-03T01:01:40;0.80;99.90
7117;DHT22;3600;48.568;7.870;2023-03-03T01:04:07;0.80;99.90
7117;DHT22;3600;48.568;7.870;2023-03-03T01:06:33;0.50;99.90
7117;DHT22;3600;48.568;7.870;2023-03-03T01:09:00;0.30;99.90
7117;DHT22;3600;48.568;7.870;2023-03-03T01:11:27;0.30;99.90
7117;DHT22;3600;48.568;7.870;2023-03-03T01:13:55;0.20;99.90
7117;DHT22;3600;48.568;7.870;2023-03-03T01:16:22;0.30;99.90
7117;DHT22;3600;48.568;7.870;2023-03-03T01:18:49;0.20;99.90
7117;DHT22;3600;48.568;7.870;2023-03-03T01:21:15;0.10;99.90
7117;DHT22;3600;48.568;7.870;2023-03-03T01:23:43;0.10;99.90
7117;DHT22;3600;48.568;7.870;2023-03-03T01:26:10;0.10;99.90
7117;DHT22;3600;48.568;7.870;2023-03-03T01:28:37;0.20;99.90
7117;DHT22;3600;48.568;7.870;2023-03-03T01:31:04;0.10;99.90
7117;DHT22;3600;48.568;7.870;2023-03-03T01:33:33;0.00;99.90
7117;DHT22;3600;48.568;7.870;2023-03-03T01:36:01;0.00;99.90
7117;DHT22;3600;48.568;7.870;2023-03-03T01:38:28;-0.10;99.90
7117;DHT22;3600;48.568;7.870;2023-03-03T01:40:57;-0.10;99.90
7117;DHT22;3600;48.568;7.870;2023-03-03T01:43:30;0.10;99.90
7117;DHT22;3600;48.568;7.870;2023-03-03T01:48:40;0.00;99.90
7117;DHT22;3600;48.568;7.870;2023-03-03T01:51:24;-0.10;99.90
7117;DHT22;3600;48.568;7.870;2023-03-03T01:54:04;-0.10;99.90
7117;DHT22;3600;48.568;7.870;2023-03-03T01:56:32;0.00;99.90
7117;DHT22;3600;48.568;7.870;2023-03-03T01:59:10;0.00;99.90
7117;DHT22;3600;48.568;7.870;2023-03-03T02:01:40;-0.10;99.90
7117;DHT22;3600;48.568;7.870;2023-03-03T02:04:07;-0.20;99.90
7117;DHT22;3600;48.568;7.870;2023-03-03T02:06:37;-0.20;99.90
7117;DHT22;3600;48.568;7.870;2023-03-03T02:09:15;-0.20;99.90
7117;DHT22;3600;48.568;7.870;2023-03-03T02:11:45;-0.20;99.90
7117;DHT22;3600;48.568;7.870;2023-03-03T02:14:17;-0.30;99.90
7117;DHT22;3600;48.568;7.870;2023-03-03T02:16:44;-0.20;99.90
7117;DHT22;3600;48.568;7.870;2023-03-03T02:22:10;-0.30;99.90
7117;DHT22;3600;48.568;7.870;2023-03-03T02:24:46;-0.30;99.90
7117;DHT22;3600;48.568;7.870;2023-03-03T02:27:14;-0.30;99.90
7117;DHT22;3600;48.568;7.870;2023-03-03T02:29:41;-0.20;99.90
7117;DHT22;3600;48.568;7.870;2023-03-03T02:32:08;0.10;99.90
7117;DHT22;3600;48.568;7.870;2023-03-03T02:34:46;-0.10;99.90
7117;DHT22;3600;48.568;7.870;2023-03-03T02:37:13;-0.30;99.90
7117;DHT22;3600;48.568;7.870;2023-03-03T02:39:40;-0.40;99.90
7117;DHT22;3600;48.568;7.870;2023-03-03T02:42:14;-0.40;99.90
7117;DHT22;3600;48.568;7.870;2023-03-03T02:44:44;-0.10;99.90
7117;DHT22;3600;48.568;7.870;2023-03-03T02:47:11;0.00;99.90
7117;DHT22;3600;48.568;7.870;2023-03-03T02:49:38;-0.20;99.90
7117;DHT22;3600;48.568;7.870;2023-03-03T02:52:07;-0.10;99.90
7117;DHT22;3600;48.568;7.870;2023-03-03T02:54:37;0.00;99.90
7117;DHT22;3600;48.568;7.870;2023-03-03T02:57:04;-0.10;99.90
7117;DHT22;3600;48.568;7.870;2023-03-03T02:59:31;-0.20;99.90
7117;DHT22;3600;48.568;7.870;2023-03-03T03:01:58;-0.30;99.90
7117;DHT22;3600;48.568;7.870;2023-03-03T03:04:26;-0.30;99.90
7117;DHT22;3600;48.568;7.870;2023-03-03T03:06:54;-0.40;99.90
7117;DHT22;3600;48.568;7.870;2023-03-03T03:09:22;-0.40;99.90
7117;DHT22;3600;48.568;7.870;2023-03-03T03:11:50;-0.50;99.90
7117;DHT22;3600;48.568;7.870;2023-03-03T03:14:16;-0.60;99.90
7117;DHT22;3600;48.568;7.870;2023-03-03T03:16:43;-0.60;99.90
7117;DHT22;3600;48.568;7.870;2023-03-03T03:19:10;-0.60;99.90
7117;DHT22;3600;48.568;7.870;2023-03-03T03:21:37;-0.50;99.90
7117;DHT22;3600;48.568;7.870;2023-03-03T03:24:04;-0.50;99.90
7117;DHT22;3600;48.568;7.870;2023-03-03T03:26:31;-0.60;99.90
7117;DHT22;3600;48.568;7.870;2023-03-03T03:28:57;-0.70;99.90
7117;DHT22;3600;48.568;7.870;2023-03-03T03:31:24;-0.60;99.90
7117;DHT22;3600;48.568;7.870;2023-03-03T03:33:51;-0.60;99.90
7117;DHT22;3600;48.568;7.870;2023-03-03T03:36:18;-0.60;99.90
7117;DHT22;3600;48.568;7.870;2023-03-03T03:38:45;-0.70;99.90
7117;DHT22;3600;48.568;7.870;2023-03-03T03:41:12;-0.70;99.90
7117;DHT22;3600;48.568;7.870;2023-03-03T03:43:39;-0.70;99.90
7117;DHT22;3600;48.568;7.870;2023-03-03T03:46:06;-0.60;99.90
7117;DHT22;3600;48.568;7.870;2023-03-03T03:48:33;-0.60;99.90
7117;DHT22;3600;48.568;7.870;2023-03-03T03:51:01;-0.60;99.90
7117;DHT22;3600;48.568;7.870;2023-03-03T03:53:28;-0.70;99.90
7117;DHT22;3600;48.568;7.870;2023-03-03T03:55:54;-0.70;99.90
7117;DHT22;3600;48.568;7.870;2023-03-03T03:58:21;-0.70;99.90
7117;DHT22;3600;48.568;7.870;2023-03-03T04:00:48;-0.60;99.90
7117;DHT22;3600;48.568;7.870;2023-03-03T04:03:15;-0.50;99.90
7117;DHT22;3600;48.568;7.870;2023-03-03T04:05:43;-0.50;99.90
7117;DHT22;3600;48.568;7.870;2023-03-03T04:08:10;-0.60;99.90
7117;DHT22;3600;48.568;7.870;2023-03-03T04:10:37;-0.50;99.90
7117;DHT22;3600;48.568;7.870;2023-03-03T04:13:04;-0.50;99.90
7117;DHT22;3600;48.568;7.870;2023-03-03T04:15:31;-0.60;99.90
7117;DHT22;3600;48.568;7.870;2023-03-03T04:17:57;-0.70;99.90
7117;DHT22;3600;48.568;7.870;2023-03-03T04:20:24;-0.70;99.90
7117;DHT22;3600;48.568;7.870;2023-03-03T04:22:51;-0.70;99.90
7117;DHT22;3600;48.568;7.870;2023-03-03T04:25:18;-0.70;99.90
7117;DHT22;3600;48.568;7.870;2023-03-03T04:27:45;-0.70;99.90
7117;DHT22;3600;48.568;7.870;2023-03-03T04:30:13;-0.60;99.90
7117;DHT22;3600;48.568;7.870;2023-03-03T04:32:40;-0.50;99.90
7117;DHT22;3600;48.568;7.870;2023-03-03T04:35:08;-0.60;99.90
7117;DHT22;3600;48.568;7.870;2023-03-03T04:37:35;-0.60;99.90
7117;DHT22;3600;48.568;7.870;2023-03-03T04:40:05;-0.50;99.90
7117;DHT22;3600;48.568;7.870;2023-03-03T04:42:34;-0.50;99.90
7117;DHT22;3600;48.568;7.870;2023-03-03T04:45:01;-0.60;99.90
7117;DHT22;3600;48.568;7.870;2023-03-03T04:47:28;-0.70;99.90
7117;DHT22;3600;48.568;7.870;2023-03-03T04:49:55;-0.70;99.90
7117;DHT22;3600;48.568;7.870;2023-03-03T04:52:21;-0.70;99.90
7117;DHT22;3600;48.568;7.870;2023-03-03T04:54:48;-0.80;99.90
7117;DHT22;3600;48.568;7.870;2023-03-03T04:57:15;-0.80;99.90
7117;DHT22;3600;48.568;7.870;2023-03-03T04:59:42;-0.80;99.90
7117;DHT22;3600;48.568;7.870;2023-03-03T05:02:08;-0.90;99.90
7117;DHT22;3600;48.568;7.870;2023-03-03T05:04:35;-0.90;99.90
7117;DHT22;3600;48.568;7.870;2023-03-03T05:07:02;-0.90;99.90
7117;DHT22;3600;48.568;7.870;2023-03-03T05:09:29;-0.90;99.90
7117;DHT22;3600;48.568;7.870;2023-03-03T05:11:56;-0.90;99.90
7117;DHT22;3600;48.568;7.870;2023-03-03T05:14:23;-0.90;99.90
7117;DHT22;3600;48.568;7.870;2023-03-03T05:16:50;-0.90;99.90
7117;DHT22;3600;48.568;7.870;2023-03-03T05:19:17;-0.90;99.90
7117;DHT22;3600;48.568;7.870;2023-03-03T05:21:43;-0.90;99.90
7117;DHT22;3600;48.568;7.870;2023-03-03T05:24:12;-0.90;99.90
7117;DHT22;3600;48.568;7.870;2023-03-03T05:26:40;-0.80;99.90
7117;DHT22;3600;48.568;7.870;2023-03-03T05:29:08;-0.70;99.90
7117;DHT22;3600;48.568;7.870;2023-03-03T05:31:35;-0.70;99.90
7117;DHT22;3600;48.568;7.870;2023-03-03T05:34:02;-0.70;99.90
7117;DHT22;3600;48.568;7.870;2023-03-03T05:36:29;-0.80;99.90
7117;DHT22;3600;48.568;7.870;2023-03-03T05:38:56;-0.80;99.90
7117;DHT22;3600;48.568;7.870;2023-03-03T05:41:22;-0.70;99.90
7117;DHT22;3600;48.568;7.870;2023-03-03T05:43:49;-0.60;99.90
7117;DHT22;3600;48.568;7.870;2023-03-03T05:46:16;-0.60;99.90
7117;DHT22;3600;48.568;7.870;2023-03-03T05:48:43;-0.60;99.90
7117;DHT22;3600;48.568;7.870;2023-03-03T05:51:10;-0.60;99.90
7117;DHT22;3600;48.568;7.870;2023-03-03T05:53:38;-0.60;99.90
7117;DHT22;3600;48.568;7.870;2023-03-03T05:56:05;-0.50;99.90
7117;DHT22;3600;48.568;7.870;2023-03-03T05:58:32;-0.50;99.90
7117;DHT22;3600;48.568;7.870;2023-03-03T06:00:58;-0.40;99.90
7117;DHT22;3600;48.568;7.870;2023-03-03T06:03:26;-0.30;99.90
7117;DHT22;3600;48.568;7.870;2023-03-03T06:05:53;-0.30;99.90
7117;DHT22;3600;48.568;7.870;2023-03-03T06:08:19;-0.30;99.90
7117;DHT22;3600;48.568;7.870;2023-03-03T06:10:46;-0.40;99.90
7117;DHT22;3600;48.568;7.870;2023-03-03T06:13:13;-0.30;99.90
7117;DHT22;3600;48.568;7.870;2023-03-03T06:15:40;-0.30;99.90
7117;DHT22;3600;48.568;7.870;2023-03-03T06:18:07;-0.30;99.90
7117;DHT22;3600;48.568;7.870;2023-03-03T06:20:34;-0.40;99.90
7117;DHT22;3600;48.568;7.870;2023-03-03T06:23:01;-0.60;99.90
7117;DHT22;3600;48.568;7.870;2023-03-03T06:25:28;-0.50;99.90
7117;DHT22;3600;48.568;7.870;2023-03-03T06:27:54;-0.50;99.90
7117;DHT22;3600;48.568;7.870;2023-03-03T06:30:21;-0.50;99.90
7117;DHT22;3600;48.568;7.870;2023-03-03T06:32:48;-0.50;99.90
7117;DHT22;3600;48.568;7.870;2023-03-03T06:35:15;-0.50;99.90
7117;DHT22;3600;48.568;7.870;2023-03-03T06:37:41;-0.40;99.90
7117;DHT22;3600;48.568;7.870;2023-03-03T06:40:09;-0.30;99.90
7117;DHT22;3600;48.568;7.870;2023-03-03T06:42:35;0.00;99.90
7117;DHT22;3600;48.568;7.870;2023-03-03T06:45:03;0.30;99.90
7117;DHT22;3600;48.568;7.870;2023-03-03T06:47:29;0.20;99.90
7117;DHT22;3600;48.568;7.870;2023-03-03T06:49:57;0.10;99.90
7117;DHT22;3600;48.568;7.870;2023-03-03T06:52:25;0.10;99.90
7117;DHT22;3600;48.568;7.870;2023-03-03T06:54:54;0.20;99.90
7117;DHT22;3600;48.568;7.870;2023-03-03T06:57:27;0.20;99.90
7117;DHT22;3600;48.568;7.870;2023-03-03T06:59:57;0.30;99.90
7117;DHT22;3600;48.568;7.870;2023-03-03T07:02:25;0.30;99.90
7117;DHT22;3600;48.568;7.870;2023-03-03T07:04:54;0.40;99.90
7117;DHT22;3600;48.568;7.870;2023-03-03T07:07:24;0.40;99.90
7117;DHT22;3600;48.568;7.870;2023-03-03T07:09:55;0.20;99.90
7117;DHT22;3600;48.568;7.870;2023-03-03T07:12:28;0.20;99.90
7117;DHT22;3600;48.568;7.870;2023-03-03T07:15:24;0.30;99.90
7117;DHT22;3600;48.568;7.870;2023-03-03T07:17:55;0.40;99.90
7117;DHT22;3600;48.568;7.870;2023-03-03T07:20:35;0.50;99.90
7117;DHT22;3600;48.568;7.870;2023-03-03T07:23:26;0.50;99.90
7117;DHT22;3600;48.568;7.870;2023-03-03T07:25:54;0.70;99.90
7117;DHT22;3600;48.568;7.870;2023-03-03T07:28:26;0.70;99.90
7117;DHT22;3600;48.568;7.870;2023-03-03T07:30:55;0.70;99.90
7117;DHT22;3600;48.568;7.870;2023-03-03T07:33:28;0.80;99.90
7117;DHT22;3600;48.568;7.870;2023-03-03T07:35:58;0.90;99.90
7117;DHT22;3600;48.568;7.870;2023-03-03T07:38:40;1.00;99.90
7117;DHT22;3600;48.568;7.870;2023-03-03T07:41:17;0.80;99.90
7117;DHT22;3600;48.568;7.870;2023-03-03T07:43:54;0.70;99.90
7117;DHT22;3600;48.568;7.870;2023-03-03T07:46:40;0.70;99.90
7117;DHT22;3600;48.568;7.870;2023-03-03T07:51:42;0.70;99.90
7117;DHT22;3600;48.568;7.870;2023-03-03T07:54:29;0.60;99.90
7117;DHT22;3600;48.568;7.870;2023-03-03T07:59:54;0.90;99.90
7117;DHT22;3600;48.568;7.870;2023-03-03T08:04:54;0.90;99.90
7117;DHT22;3600;48.568;7.870;2023-03-03T08:07:22;1.00;99.90
7117;DHT22;3600;48.568;7.870;2023-03-03T08:09:53;1.00;99.90
7117;DHT22;3600;48.568;7.870;2023-03-03T08:12:30;1.20;99.90
7117;DHT22;3600;48.568;7.870;2023-03-03T08:15:20;1.40;99.90
7117;DHT22;3600;48.568;7.870;2023-03-03T08:17:49;1.50;99.90
7117;DHT22;3600;48.568;7.870;2023-03-03T08:20:46;1.60;99.90
7117;DHT22;3600;48.568;7.870;2023-03-03T08:23:14;1.70;99.90
7117;DHT22;3600;48.568;7.870;2023-03-03T08:25:42;1.70;99.90
7117;DHT22;3600;48.568;7.870;2023-03-03T08:28:10;1.70;99.90
7117;DHT22;3600;48.568;7.870;2023-03-03T08:30:38;1.80;99.90
7117;DHT22;3600;48.568;7.870;2023-03-03T08:33:05;1.70;99.90
7117;DHT22;3600;48.568;7.870;2023-03-03T08:35:32;1.70;99.90
7117;DHT22;3600;48.568;7.870;2023-03-03T08:37:59;1.80;99.90
7117;DHT22;3600;48.568;7.870;2023-03-03T08:40:25;1.90;99.90
7117;DHT22;3600;48.568;7.870;2023-03-03T08:42:52;1.90;99.90
7117;DHT22;3600;48.568;7.870;2023-03-03T08:45:20;1.70;99.90
7117;DHT22;3600;48.568;7.870;2023-03-03T08:47:46;1.50;99.90
7117;DHT22;3600;48.568;7.870;2023-03-03T08:50:13;1.60;99.90
7117;DHT22;3600;48.568;7.870;2023-03-03T08:52:40;1.60;99.90
7117;DHT22;3600;48.568;7.870;2023-03-03T08:55:07;1.70;99.90
7117;DHT22;3600;48.568;7.870;2023-03-03T08:57:34;1.80;99.90
7117;DHT22;3600;48.568;7.870;2023-03-03T09:00:01;1.90;99.90
7117;DHT22;3600;48.568;7.870;2023-03-03T09:02:28;2.00;99.90
7117;DHT22;3600;48.568;7.870;2023-03-03T09:04:55;1.90;99.90
7117;DHT22;3600;48.568;7.870;2023-03-03T09:07:22;1.80;99.90
7117;DHT22;3600;48.568;7.870;2023-03-03T09:09:48;1.90;99.90
7117;DHT22;3600;48.568;7.870;2023-03-03T09:12:36;1.90;99.90
7117;DHT22;3600;48.568;7.870;2023-03-03T09:17:46;2.00;99.90
7117;DHT22;3600;48.568;7.870;2023-03-03T09:25:54;2.10;99.90
7117;DHT22;3600;48.568;7.870;2023-03-03T09:28:28;2.40;99.90
7117;DHT22;3600;48.568;7.870;2023-03-03T09:31:00;2.40;99.90
7117;DHT22;3600;48.568;7.870;2023-03-03T09:33:28;2.50;99.90
7117;DHT22;3600;48.568;7.870;2023-03-03T09:38:31;2.40;99.90
7117;DHT22;3600;48.568;7.870;2023-03-03T09:52:17;2.90;99.90
7117;DHT22;3600;48.568;7.870;2023-03-03T10:00:47;3.00;99.90
7117;DHT22;3600;48.568;7.870;2023-03-03T10:03:52;3.00;99.90
7117;DHT22;3600;48.568;7.870;2023-03-03T10:12:23;3.40;99.90
7117;DHT22;3600;48.568;7.870;2023-03-03T10:20:49;3.70;99.90
7117;DHT22;3600;48.568;7.870;2023-03-03T10:32:24;3.90;99.90
7117;DHT22;3600;48.568;7.870;2023-03-03T10:37:56;3.90;99.90
7117;DHT22;3600;48.568;7.870;2023-03-03T10:40:46;4.00;99.90
7117;DHT22;3600;48.568;7.870;2023-03-03T10:46:09;4.50;99.90
7117;DHT22;3600;48.568;7.870;2023-03-03T10:54:14;4.60;99.90
7117;DHT22;3600;48.568;7.870;2023-03-03T11:02:22;4.60;99.90
7117;DHT22;3600;48.568;7.870;2023-03-03T11:04:57;4.70;99.90
7117;DHT22;3600;48.568;7.870;2023-03-03T11:10:26;4.80;99.90
7117;DHT22;3600;48.568;7.870;2023-03-03T11:16:12;5.10;99.90
7117;DHT22;3600;48.568;7.870;2023-03-03T11:21:44;5.20;99.90
7117;DHT22;3600;48.568;7.870;2023-03-03T11:24:40;5.20;99.90
7117;DHT22;3600;48.568;7.870;2023-03-03T11:33:43;5.70;99.90
7117;DHT22;3600;48.568;7.870;2023-03-03T11:36:22;5.80;99.90
7117;DHT22;3600;48.568;7.870;2023-03-03T11:39:09;5.60;99.90
7117;DHT22;3600;48.568;7.870;2023-03-03T11:41:42;6.00;99.90
7117;DHT22;3600;48.568;7.870;2023-03-03T11:47:05;6.20;99.90
7117;DHT22;3600;48.568;7.870;2023-03-03T11:55:13;6.20;99.90
7117;DHT22;3600;48.568;7.870;2023-03-03T12:16:57;7.10;99.90
7117;DHT22;3600;48.568;7.870;2023-03-03T12:22:30;7.40;99.90
7117;DHT22;3600;48.568;7.870;2023-03-03T12:27:41;7.20;99.90
7117;DHT22;3600;48.568;7.870;2023-03-03T12:33:31;7.60;99.90
7117;DHT22;3600;48.568;7.870;2023-03-03T12:45:04;7.70;99.90
7117;DHT22;3600;48.568;7.870;2023-03-03T12:48:14;7.80;99.90
7117;DHT22;3600;48.568;7.870;2023-03-03T12:50:59;8.00;99.90
7117;DHT22;3600;48.568;7.870;2023-03-03T12:56:43;8.00;99.90
7117;DHT22;3600;48.568;7.870;2023-03-03T12:59:52;8.00;99.90
7117;DHT22;3600;48.568;7.870;2023-03-03T13:02:48;8.00;99.90
7117;DHT22;3600;48.568;7.870;2023-03-03T13:05:55;8.30;99.90
7117;DHT22;3600;48.568;7.870;2023-03-03T13:08:29;8.40;99.90
7117;DHT22;3600;48.568;7.870;2023-03-03T13:11:17;8.40;99.90
7117;DHT22;3600;48.568;7.870;2023-03-03T13:13:51;8.40;99.90
7117;DHT22;3600;48.568;7.870;2023-03-03T13:20:02;8.90;99.90
7117;DHT22;3600;48.568;7.870;2023-03-03T13:22:12;8.60;99.90
7117;DHT22;3600;48.568;7.870;2023-03-03T13:25:06;8.70;99.90
7117;DHT22;3600;48.568;7.870;2023-03-03T13:27:47;8.70;99.90
7117;DHT22;3600;48.568;7.870;2023-03-03T13:30:23;8.70;99.90
7117;DHT22;3600;48.568;7.870;2023-03-03T13:33:24;8.70;99.90
7117;DHT22;3600;48.568;7.870;2023-03-03T13:35:58;8.40;99.90
7117;DHT22;3600;48.568;7.870;2023-03-03T13:38:44;8.50;99.90
7117;DHT22;3600;48.568;7.870;2023-03-03T13:41:28;8.80;99.90
7117;DHT22;3600;48.568;7.870;2023-03-03T13:52:22;9.00;99.90
7117;DHT22;3600;48.568;7.870;2023-03-03T13:55:05;9.10;99.90
7117;DHT22;3600;48.568;7.870;2023-03-03T14:00:58;9.30;99.90
7117;DHT22;3600;48.568;7.870;2023-03-03T14:06:23;9.20;99.90
7117;DHT22;3600;48.568;7.870;2023-03-03T14:11:42;9.50;99.80
7117;DHT22;3600;48.568;7.870;2023-03-03T14:14:17;9.60;99.70
7117;DHT22;3600;48.568;7.870;2023-03-03T14:16:55;9.30;99.90
7117;DHT22;3600;48.568;7.870;2023-03-03T14:19:39;9.50;99.90
7117;DHT22;3600;48.568;7.870;2023-03-03T14:22:32;9.50;99.60
7117;DHT22;3600;48.568;7.870;2023-03-03T14:25:05;9.60;99.70
7117;DHT22;3600;48.568;7.870;2023-03-03T14:33:01;10.00;99.10
7117;DHT22;3600;48.568;7.870;2023-03-03T14:35:31;9.90;99.10
7117;DHT22;3600;48.568;7.870;2023-03-03T14:38:09;9.90;99.40
7117;DHT22;3600;48.568;7.870;2023-03-03T14:40:39;9.70;99.90
7117;DHT22;3600;48.568;7.870;2023-03-03T14:43:42;9.90;99.60
7117;DHT22;3600;48.568;7.870;2023-03-03T14:46:32;9.90;98.20
7117;DHT22;3600;48.568;7.870;2023-03-03T14:49:03;9.90;98.30
7117;DHT22;3600;48.568;7.870;2023-03-03T14:51:45;10.00;97.50
7117;DHT22;3600;48.568;7.870;2023-03-03T14:54:23;9.90;99.70
7117;DHT22;3600;48.568;7.870;2023-03-03T14:56:59;9.70;98.80
7117;DHT22;3600;48.568;7.870;2023-03-03T14:59:26;9.80;99.80
7117;DHT22;3600;48.568;7.870;2023-03-03T15:02:27;10.00;99.40
7117;DHT22;3600;48.568;7.870;2023-03-03T15:05:25;9.90;99.50
7117;DHT22;3600;48.568;7.870;2023-03-03T15:07:55;9.70;99.90
7117;DHT22;3600;48.568;7.870;2023-03-03T15:10:34;9.80;99.10
7117;DHT22;3600;48.568;7.870;2023-03-03T15:15:52;10.00;99.40
7117;DHT22;3600;48.568;7.870;2023-03-03T15:18:28;9.80;98.50
7117;DHT22;3600;48.568;7.870;2023-03-03T15:20:59;9.60;99.30
7117;DHT22;3600;48.568;7.870;2023-03-03T15:34:38;9.70;98.90
7117;DHT22;3600;48.568;7.870;2023-03-03T15:37:39;9.60;99.90
7117;DHT22;3600;48.568;7.870;2023-03-03T15:45:33;9.40;99.80
7117;DHT22;3600;48.568;7.870;2023-03-03T15:51:39;9.50;99.90
7117;DHT22;3600;48.568;7.870;2023-03-03T15:54:43;9.50;99.70
7117;DHT22;3600;48.568;7.870;2023-03-03T16:00:33;9.40;99.60
7117;DHT22;3600;48.568;7.870;2023-03-03T16:03:30;9.30;99.80
7117;DHT22;3600;48.568;7.870;2023-03-03T16:06:06;9.20;99.70
7117;DHT22;3600;48.568;7.870;2023-03-03T16:08:48;9.10;99.90
7117;DHT22;3600;48.568;7.870;2023-03-03T16:11:25;9.30;99.90
7117;DHT22;3600;48.568;7.870;2023-03-03T16:14:41;9.20;99.90
7117;DHT22;3600;48.568;7.870;2023-03-03T16:17:26;9.20;99.90
7117;DHT22;3600;48.568;7.870;2023-03-03T16:22:56;8.80;99.90
7117;DHT22;3600;48.568;7.870;2023-03-03T16:26:13;8.80;99.90
7117;DHT22;3600;48.568;7.870;2023-03-03T16:31:35;8.60;99.90
7117;DHT22;3600;48.568;7.870;2023-03-03T16:34:14;8.50;99.90
7117;DHT22;3600;48.568;7.870;2023-03-03T16:39:34;8.50;99.90
7117;DHT22;3600;48.568;7.870;2023-03-03T16:42:23;8.40;99.90
7117;DHT22;3600;48.568;7.870;2023-03-03T16:45:37;8.30;99.90
7117;DHT22;3600;48.568;7.870;2023-03-03T16:48:21;8.20;99.90
7117;DHT22;3600;48.568;7.870;2023-03-03T16:56:22;7.90;99.90
7117;DHT22;3600;48.568;7.870;2023-03-03T17:04:44;7.70;99.90
7117;DHT22;3600;48.568;7.870;2023-03-03T17:06:58;7.70;99.90
7117;DHT22;3600;48.568;7.870;2023-03-03T17:17:41;7.20;99.90
7117;DHT22;3600;48.568;7.870;2023-03-03T17:26:24;7.00;99.90
7117;DHT22;3600;48.568;7.870;2023-03-03T17:47:14;6.50;99.90
7117;DHT22;3600;48.568;7.870;2023-03-03T17:50:02;6.40;99.90
7117;DHT22;3600;48.568;7.870;2023-03-03T17:52:44;6.30;99.90
7117;DHT22;3600;48.568;7.870;2023-03-03T17:55:30;6.20;99.90
7117;DHT22;3600;48.568;7.870;2023-03-03T18:03:47;5.90;99.90
7117;DHT22;3600;48.568;7.870;2023-03-03T18:15:19;5.80;99.90
7117;DHT22;3600;48.568;7.870;2023-03-03T18:18:01;5.80;99.90
7117;DHT22;3600;48.568;7.870;2023-03-03T18:20:48;5.70;99.90
7117;DHT22;3600;48.568;7.870;2023-03-03T18:26:31;5.50;99.90
7117;DHT22;3600;48.568;7.870;2023-03-03T18:31:49;5.30;99.90
7117;DHT22;3600;48.568;7.870;2023-03-03T18:42:34;5.20;99.90
7117;DHT22;3600;48.568;7.870;2023-03-03T18:50:34;5.10;99.90
7117;DHT22;3600;48.568;7.870;2023-03-03T18:53:29;5.00;99.90
7117;DHT22;3600;48.568;7.870;2023-03-03T18:56:01;5.00;99.90
7117;DHT22;3600;48.568;7.870;2023-03-03T19:01:42;4.90;99.90
7117;DHT22;3600;48.568;7.870;2023-03-03T19:09:11;4.90;99.90
7117;DHT22;3600;48.568;7.870;2023-03-03T19:11:49;4.90;99.90
7117;DHT22;3600;48.568;7.870;2023-03-03T19:14:29;4.80;99.90
7117;DHT22;3600;48.568;7.870;2023-03-03T19:16:58;4.80;99.90
7117;DHT22;3600;48.568;7.870;2023-03-03T19:22:46;4.80;99.90
7117;DHT22;3600;48.568;7.870;2023-03-03T19:25:20;4.70;99.90
7117;DHT22;3600;48.568;7.870;2023-03-03T19:33:41;4.70;99.90
7117;DHT22;3600;48.568;7.870;2023-03-03T19:36:20;4.70;99.90
7117;DHT22;3600;48.568;7.870;2023-03-03T19:39:13;4.70;99.90
7117;DHT22;3600;48.568;7.870;2023-03-03T19:47:05;4.90;99.90
7117;DHT22;3600;48.568;7.870;2023-03-03T19:50:02;4.90;99.90
7117;DHT22;3600;48.568;7.870;2023-03-03T19:52:45;4.90;99.90
7117;DHT22;3600;48.568;7.870;2023-03-03T20:00:40;4.70;99.90
7117;DHT22;3600;48.568;7.870;2023-03-03T20:06:19;4.50;99.90
7117;DHT22;3600;48.568;7.870;2023-03-03T20:11:41;4.40;99.90
7117;DHT22;3600;48.568;7.870;2023-03-03T20:16:47;4.40;99.90
7117;DHT22;3600;48.568;7.870;2023-03-03T20:22:32;4.40;99.90
7117;DHT22;3600;48.568;7.870;2023-03-03T20:25:11;4.40;99.90
7117;DHT22;3600;48.568;7.870;2023-03-03T20:28:10;4.40;99.90
7117;DHT22;3600;48.568;7.870;2023-03-03T20:38:38;4.20;99.90
7117;DHT22;3600;48.568;7.870;2023-03-03T20:41:19;4.20;99.90
7117;DHT22;3600;48.568;7.870;2023-03-03T20:44:16;4.20;99.90
7117;DHT22;3600;48.568;7.870;2023-03-03T20:50:10;4.00;99.90
7117;DHT22;3600;48.568;7.870;2023-03-03T20:52:45;4.00;99.90
7117;DHT22;3600;48.568;7.870;2023-03-03T21:00:45;4.10;99.90
7117;DHT22;3600;48.568;7.870;2023-03-03T21:03:25;4.10;99.90
7117;DHT22;3600;48.568;7.870;2023-03-03T21:06:02;4.30;99.90
7117;DHT22;3600;48.568;7.870;2023-03-03T21:08:56;4.30;99.90
7117;DHT22;3600;48.568;7.870;2023-03-03T21:11:39;4.20;99.90
7117;DHT22;3600;48.568;7.870;2023-03-03T21:14:38;4.20;99.90
7117;DHT22;3600;48.568;7.870;2023-03-03T21:17:23;4.10;99.90
7117;DHT22;3600;48.568;7.870;2023-03-03T21:19:50;4.10;99.90
7117;DHT22;3600;48.568;7.870;2023-03-03T21:22:17;3.90;99.90
7117;DHT22;3600;48.568;7.870;2023-03-03T21:24:56;3.90;99.90
7117;DHT22;3600;48.568;7.870;2023-03-03T21:27:31;3.80;99.90
7117;DHT22;3600;48.568;7.870;2023-03-03T21:32:46;3.70;99.90
7117;DHT22;3600;48.568;7.870;2023-03-03T21:35:20;3.60;99.90
7117;DHT22;3600;48.568;7.870;2023-03-03T21:37:54;3.80;99.90
7117;DHT22;3600;48.568;7.870;2023-03-03T21:40:28;3.70;99.90
7117;DHT22;3600;48.568;7.870;2023-03-03T21:42:57;3.60;99.90
7117;DHT22;3600;48.568;7.870;2023-03-03T21:45:29;3.30;99.90
7117;DHT22;3600;48.568;7.870;2023-03-03T21:47:56;3.20;99.90
7117;DHT22;3600;48.568;7.870;2023-03-03T21:50:27;3.20;99.90
7117;DHT22;3600;48.568;7.870;2023-03-03T21:52:57;3.20;99.90
7117;DHT22;3600;48.568;7.870;2023-03-03T21:55:24;3.20;99.90
7117;DHT22;3600;48.568;7.870;2023-03-03T21:57:52;3.20;99.90
7117;DHT22;3600;48.568;7.870;2023-03-03T22:00:19;3.10;99.90
7117;DHT22;3600;48.568;7.870;2023-03-03T22:02:46;3.10;99.90
7117;DHT22;3600;48.568;7.870;2023-03-03T22:05:12;3.20;99.90
7117;DHT22;3600;48.568;7.870;2023-03-03T22:07:39;3.20;99.90
7117;DHT22;3600;48.568;7.870;2023-03-03T22:10:06;3.00;99.90
7117;DHT22;3600;48.568;7.870;2023-03-03T22:12:35;2.90;99.90
7117;DHT22;3600;48.568;7.870;2023-03-03T22:15:02;2.70;99.90
7117;DHT22;3600;48.568;7.870;2023-03-03T22:17:29;2.70;99.90
7117;DHT22;3600;48.568;7.870;2023-03-03T22:19:55;2.70;99.90
7117;DHT22;3600;48.568;7.870;2023-03-03T22:22:22;2.80;99.90
7117;DHT22;3600;48.568;7.870;2023-03-03T22:24:49;2.80;99.90
7117;DHT22;3600;48.568;7.870;2023-03-03T22:27:16;2.70;99.90
7117;DHT22;3600;48.568;7.870;2023-03-03T22:29:43;2.80;99.90
7117;DHT22;3600;48.568;7.870;2023-03-03T22:32:10;2.90;99.90
7117;DHT22;3600;48.568;7.870;2023-03-03T22:34:37;2.70;99.90
7117;DHT22;3600;48.568;7.870;2023-03-03T22:37:03;2.60;99.90
7117;DHT22;3600;48.568;7.870;2023-03-03T22:39:30;2.50;99.90